Terminal Aerodrome Forecast
Issued by NWS Norman, OK

Home | Current Version | Previous Version | Text Only | Print | Product List | Glossary On
Versions: 1 2 3 4 5 6 7 8 9 10 11 12 13 14 15 16 17 18 19 20 21 22 23 24
000
FTUS44 KOUN 200520
TAFOKC
TAF
KOKC 200520Z 2006/2106 16014KT P6SM BKN018
     FM201100 17011KT 5SM -TSRA SCT008 OVC015CB
     FM201500 36015KT P6SM OVC008
     FM201800 36015G21KT P6SM BKN015
     FM202100 36016G22KT P6SM BKN025
     FM202300 36015G21KT P6SM BKN035=

USA.gov is the U.S. government's official web portal to all federal, state and local government web resources and services.